Time;durP1;ratioP1;P1;durP2;ratioP2;P2;SDS_P1;SDS_P2;PMS_P1;PMS_P2;Temp;Humidity;BMP_temperature;BMP_pressure;BME280_temperature;BME280_humidity;BME280_pressure;Samples;Min_cycle;Max_cycle;Signal;HPM_P1;HPM_P2
2022/06/27 00:00:17;;;;;;;1.00;0.60;;;22.00;64.10;;;;;;5111454;28;20039;-70
2022/06/27 00:02:43;;;;;;;3.22;0.88;;;22.00;64.10;;;;;;5111609;28;20047;-71
2022/06/27 00:05:11;;;;;;;1.30;0.60;;;22.00;64.20;;;;;;5111467;28;20038;-70
2022/06/27 00:07:37;;;;;;;0.85;0.57;;;22.00;64.20;;;;;;5111404;28;20051;-70
2022/06/27 00:10:04;;;;;;;1.00;0.70;;;21.90;64.10;;;;;;5111449;28;20050;-70
2022/06/27 00:12:30;;;;;;;1.00;0.47;;;21.90;64.20;;;;;;5112408;28;20036;-71
2022/06/27 00:14:56;;;;;;;1.63;0.60;;;21.90;64.20;;;;;;5110879;28;20631;-71
2022/06/27 00:17:21;;;;;;;2.38;0.63;;;21.90;64.20;;;;;;5110937;28;20040;-70
2022/06/27 00:19:50;;;;;;;1.30;0.50;;;21.90;64.20;;;;;;5110852;28;20097;-71
2022/06/27 00:22:16;;;;;;;1.15;0.63;;;21.90;64.20;;;;;;5111305;28;20040;-70
2022/06/27 00:24:42;;;;;;;1.05;0.50;;;21.90;64.20;;;;;;5111176;28;20042;-70
2022/06/27 00:27:07;;;;;;;0.90;0.50;;;21.90;64.30;;;;;;5112302;28;20382;-71
2022/06/27 00:29:33;;;;;;;3.20;0.50;;;21.90;64.30;;;;;;5111199;28;20100;-70
2022/06/27 00:32:01;;;;;;;1.17;0.50;;;21.80;64.20;;;;;;5110883;28;20045;-71
2022/06/27 00:34:27;;;;;;;1.10;0.35;;;21.80;64.30;;;;;;5090582;28;20124;-71
2022/06/27 00:36:53;;;;;;;0.90;0.45;;;21.90;64.30;;;;;;5093059;28;20851;-70
2022/06/27 00:39:18;;;;;;;1.15;0.45;;;21.80;64.30;;;;;;5110832;28;20071;-71
2022/06/27 00:41:50;;;;;;;1.63;0.70;;;21.80;64.30;;;;;;5111061;28;20360;-70
2022/06/27 00:47:12;;;;;;;1.45;0.40;;;21.90;64.30;;;;;;5130227;27;20890;-70
2022/06/27 00:49:38;;;;;;;1.33;0.60;;;21.80;64.30;;;;;;5128941;27;20096;-71
2022/06/27 00:52:11;;;;;;;1.83;0.50;;;21.80;64.30;;;;;;5129129;28;20032;-71
2022/06/27 00:54:38;;;;;;;0.65;0.43;;;21.80;64.30;;;;;;5129251;28;20093;-71
2022/06/27 00:57:05;;;;;;;2.35;0.60;;;21.80;64.30;;;;;;5128978;27;20031;-71
2022/06/27 00:59:31;;;;;;;1.08;0.55;;;21.80;64.30;;;;;;5128836;28;20039;-70
2022/06/27 01:01:56;;;;;;;1.80;0.63;;;21.80;64.30;;;;;;5128661;28;20103;-71
2022/06/27 01:04:22;;;;;;;1.67;0.57;;;21.80;64.40;;;;;;5129935;28;20031;-70
2022/06/27 01:06:51;;;;;;;0.85;0.40;;;21.80;64.40;;;;;;5145788;27;20039;-71
2022/06/27 01:09:19;;;;;;;1.25;0.47;;;21.80;64.40;;;;;;5128616;28;20039;-72
2022/06/27 01:11:45;;;;;;;0.63;0.50;;;21.80;64.40;;;;;;5128781;28;20051;-70
2022/06/27 01:14:12;;;;;;;1.20;0.50;;;21.80;64.40;;;;;;5128549;28;20039;-71
2022/06/27 01:16:39;;;;;;;1.67;0.50;;;21.70;64.40;;;;;;5128732;28;20368;-71
2022/06/27 01:19:11;;;;;;;1.58;0.80;;;21.80;64.50;;;;;;5129625;27;20058;-71
2022/06/27 01:21:47;;;;;;;1.02;0.40;;;21.70;64.50;;;;;;5128830;28;20046;-71
2022/06/27 01:24:12;;;;;;;1.27;0.55;;;21.80;64.50;;;;;;5128965;27;20050;-72
2022/06/27 01:26:40;;;;;;;1.05;0.40;;;21.80;64.50;;;;;;5128937;28;20033;-72
2022/06/27 01:29:06;;;;;;;1.02;0.40;;;21.70;64.50;;;;;;5129544;28;20043;-71
2022/06/27 01:31:34;;;;;;;0.90;0.40;;;21.70;64.50;;;;;;5128118;28;20123;-71
2022/06/27 01:34:03;;;;;;;1.13;0.50;;;21.70;64.50;;;;;;5128389;28;20053;-71
2022/06/27 01:36:44;;;;;;;0.73;0.50;;;21.70;64.50;;;;;;5128359;27;20043;-71
2022/06/27 01:41:53;;;;;;;2.30;0.93;;;21.70;64.50;;;;;;5089462;28;20393;-71
2022/06/27 01:44:20;;;;;;;1.77;0.68;;;21.70;64.50;;;;;;5088297;28;20404;-71
2022/06/27 01:46:49;;;;;;;1.67;0.57;;;21.70;64.50;;;;;;5088380;28;20047;-71
2022/06/27 01:49:19;;;;;;;0.98;0.50;;;21.70;64.50;;;;;;5088351;28;20523;-72
2022/06/27 01:51:48;;;;;;;0.93;0.40;;;21.70;64.50;;;;;;5088095;28;20123;-70
2022/06/27 01:54:17;;;;;;;1.27;0.43;;;21.70;64.50;;;;;;5087970;28;20044;-71
2022/06/27 01:56:44;;;;;;;0.68;0.40;;;21.70;64.50;;;;;;5088189;28;20044;-71
2022/06/27 01:59:12;;;;;;;0.82;0.30;;;21.70;64.50;;;;;;5088016;28;20047;-71
2022/06/27 02:01:40;;;;;;;0.80;0.43;;;21.70;64.50;;;;;;5087850;28;20044;-71
2022/06/27 02:04:05;;;;;;;1.35;0.60;;;21.60;64.40;;;;;;5087744;28;20062;-70
2022/06/27 02:06:31;;;;;;;1.00;0.40;;;21.70;64.50;;;;;;5087779;28;20050;-70
2022/06/27 02:08:58;;;;;;;1.15;0.40;;;21.70;64.60;;;;;;5087907;28;20032;-71
2022/06/27 02:11:25;;;;;;;2.45;0.98;;;21.70;64.50;;;;;;5088950;28;20380;-71
2022/06/27 02:13:53;;;;;;;1.00;0.60;;;21.70;64.60;;;;;;5086883;28;20056;-71
2022/06/27 02:16:19;;;;;;;0.90;0.43;;;21.70;64.50;;;;;;5087564;28;20040;-71
2022/06/27 02:18:46;;;;;;;1.65;0.50;;;21.70;65.30;;;;;;5088736;28;20037;-70
2022/06/27 02:21:19;;;;;;;2.55;0.60;;;21.70;64.60;;;;;;5070534;28;20085;-71
2022/06/27 02:23:45;;;;;;;0.63;0.40;;;21.60;64.50;;;;;;5087630;28;20044;-70
2022/06/27 02:26:12;;;;;;;0.95;0.40;;;21.70;64.60;;;;;;5086753;28;20116;-71
2022/06/27 02:28:38;;;;;;;1.05;0.50;;;21.70;64.70;;;;;;5087010;28;20047;-70
2022/06/27 02:31:05;;;;;;;1.00;0.50;;;21.60;64.50;;;;;;5087257;28;20055;-72
2022/06/27 02:33:35;;;;;;;0.70;0.40;;;21.60;64.50;;;;;;5087491;28;20048;-71
2022/06/27 02:36:03;;;;;;;;;;;21.60;64.50;;;;;;5087638;28;20174;-71
2022/06/27 02:38:32;;;;;;;0.82;0.50;;;21.60;64.60;;;;;;5087240;28;20398;-72
2022/06/27 02:41:01;;;;;;;1.80;0.63;;;21.60;64.60;;;;;;5086006;28;20052;-70
2022/06/27 02:43:33;;;;;;;1.60;0.68;;;21.60;64.60;;;;;;5088360;28;20749;-71
2022/06/27 02:45:59;;;;;;;0.85;0.50;;;21.60;64.70;;;;;;5088430;28;20067;-71
2022/06/27 02:48:30;;;;;;;1.73;0.50;;;21.60;64.70;;;;;;5086952;28;20040;-71
2022/06/27 02:50:59;;;;;;;0.98;0.52;;;21.60;64.70;;;;;;5087461;28;20060;-71
2022/06/27 02:53:27;;;;;;;1.95;0.50;;;21.60;64.70;;;;;;5074376;28;20047;-71
2022/06/27 02:55:55;;;;;;;2.30;0.60;;;21.60;64.70;;;;;;5072777;28;20072;-71
2022/06/27 02:58:33;;;;;;;1.30;0.73;;;21.60;64.70;;;;;;5074360;28;20111;-70
2022/06/27 03:01:03;;;;;;;1.10;0.70;;;21.60;64.70;;;;;;5074494;28;20044;-71
2022/06/27 03:03:32;;;;;;;2.95;0.80;;;21.60;64.80;;;;;;5073518;28;20072;-71
2022/06/27 03:08:41;;;;;;;1.10;0.70;;;21.50;64.70;;;;;;5130274;27;20365;-72
2022/06/27 03:11:09;;;;;;;0.80;0.40;;;21.50;64.70;;;;;;5129162;28;20047;-70
2022/06/27 03:13:34;;;;;;;1.88;0.55;;;21.50;64.80;;;;;;5129287;28;20510;-70
2022/06/27 03:16:01;;;;;;;1.00;0.52;;;21.50;64.70;;;;;;5130292;27;20070;-71
2022/06/27 03:18:27;;;;;;;2.25;0.68;;;21.50;64.70;;;;;;5128271;28;20058;-70
2022/06/27 03:20:52;;;;;;;1.67;0.88;;;21.50;64.70;;;;;;5128937;28;20137;-70
2022/06/27 03:23:20;;;;;;;2.67;0.70;;;21.50;64.70;;;;;;5129005;28;20502;-71
2022/06/27 03:25:46;;;;;;;1.35;0.50;;;21.50;64.70;;;;;;5128725;28;20118;-70
2022/06/27 03:28:11;;;;;;;1.58;0.70;;;21.50;64.70;;;;;;5129925;28;20150;-71
2022/06/27 03:30:37;;;;;;;3.05;1.10;;;21.50;64.70;;;;;;5127919;28;20031;-71
2022/06/27 03:33:03;;;;;;;3.35;0.77;;;21.50;64.80;;;;;;5128721;28;20041;-71
2022/06/27 03:35:29;;;;;;;1.92;1.10;;;21.50;64.80;;;;;;5128708;28;20110;-70
2022/06/27 03:37:55;;;;;;;2.45;1.00;;;21.50;64.80;;;;;;5128493;28;20490;-71
2022/06/27 03:40:20;;;;;;;2.75;0.73;;;21.40;64.80;;;;;;5128462;28;20043;-70
2022/06/27 03:42:49;;;;;;;1.13;0.50;;;21.50;64.90;;;;;;5129686;28;20066;-72
2022/06/27 03:45:15;;;;;;;2.10;0.63;;;21.50;64.90;;;;;;5128315;28;20035;-71
2022/06/27 03:47:53;;;;;;;1.05;0.63;;;21.40;64.80;;;;;;5128200;28;20100;-71
2022/06/27 03:50:19;;;;;;;1.35;0.68;;;21.40;64.90;;;;;;5128203;28;20085;-70
2022/06/27 03:52:46;;;;;;;1.17;0.95;;;21.40;64.90;;;;;;5129505;27;20039;-71
2022/06/27 03:55:12;;;;;;;1.25;0.70;;;21.40;64.90;;;;;;5128144;28;20044;-70
2022/06/27 03:57:46;;;;;;;1.58;0.77;;;21.40;65.00;;;;;;5128363;28;20367;-71
2022/06/27 04:00:11;;;;;;;1.20;0.90;;;21.40;64.90;;;;;;5128116;28;20043;-71
2022/06/27 04:02:41;;;;;;;0.70;0.40;;;21.40;64.90;;;;;;5128025;28;20046;-70
2022/06/27 04:05:07;;;;;;;0.80;0.40;;;21.40;65.00;;;;;;5128211;27;20047;-70
2022/06/27 04:07:33;;;;;;;1.25;0.88;;;21.40;65.00;;;;;;5127614;27;20055;-70
2022/06/27 04:09:59;;;;;;;1.13;0.68;;;21.40;65.00;;;;;;5127859;27;20039;-71
2022/06/27 04:12:25;;;;;;;1.77;0.60;;;21.40;65.10;;;;;;5127761;28;20047;-70
2022/06/27 04:14:51;;;;;;;1.65;0.50;;;21.40;65.10;;;;;;5127777;28;20047;-70
2022/06/27 04:17:17;;;;;;;1.63;0.80;;;21.40;65.20;;;;;;5127686;28;20437;-71
2022/06/27 04:19:43;;;;;;;0.88;0.75;;;21.30;65.10;;;;;;5116681;27;20512;-71
2022/06/27 04:22:09;;;;;;;1.70;1.10;;;21.40;65.10;;;;;;5114141;28;20039;-71
2022/06/27 04:24:36;;;;;;;1.33;0.70;;;21.30;65.10;;;;;;5114208;28;20059;-71
2022/06/27 04:27:05;;;;;;;0.95;0.60;;;21.30;65.10;;;;;;5113754;28;20527;-71
2022/06/27 04:29:31;;;;;;;1.20;0.60;;;21.30;65.20;;;;;;5113803;28;20121;-71
2022/06/27 04:31:57;;;;;;;1.70;0.75;;;21.30;65.20;;;;;;5114034;28;20080;-71
2022/06/27 04:34:24;;;;;;;1.00;0.57;;;21.30;65.20;;;;;;5113603;28;20081;-72
2022/06/27 04:36:50;;;;;;;0.60;0.43;;;21.30;65.30;;;;;;5112364;28;20051;-71
2022/06/27 04:39:20;;;;;;;2.65;0.60;;;21.30;65.20;;;;;;5114851;28;20099;-71
2022/06/27 04:41:49;;;;;;;1.67;0.77;;;21.30;65.20;;;;;;5113951;28;20050;-71
2022/06/27 04:44:14;;;;;;;1.15;0.60;;;21.30;65.20;;;;;;5113329;28;20616;-71
2022/06/27 04:46:41;;;;;;;1.77;0.57;;;21.30;65.20;;;;;;5112995;28;20092;-71
2022/06/27 04:49:08;;;;;;;2.05;0.40;;;21.20;65.20;;;;;;5113628;28;20092;-71
2022/06/27 04:51:34;;;;;;;1.75;0.60;;;21.30;65.30;;;;;;5113688;28;20032;-71
2022/06/27 04:54:00;;;;;;;0.95;0.52;;;21.30;65.30;;;;;;5113606;28;20040;-70
2022/06/27 04:56:26;;;;;;;1.88;0.65;;;21.20;65.30;;;;;;5114579;28;20041;-71
2022/06/27 04:58:52;;;;;;;2.38;0.40;;;21.20;65.30;;;;;;5114496;28;20040;-70
2022/06/27 05:01:18;;;;;;;0.80;0.40;;;21.20;65.30;;;;;;5114561;28;20039;-72
2022/06/27 05:03:44;;;;;;;0.73;0.40;;;21.20;65.30;;;;;;5113047;28;20088;-70
2022/06/27 05:06:10;;;;;;;1.20;0.50;;;21.20;65.30;;;;;;5113422;28;20085;-71
2022/06/27 05:08:37;;;;;;;0.82;0.50;;;21.20;65.30;;;;;;5112685;28;20146;-71
2022/06/27 05:11:03;;;;;;;0.73;0.50;;;21.20;65.30;;;;;;5112934;28;20043;-72
2022/06/27 05:13:29;;;;;;;1.30;0.63;;;21.20;65.30;;;;;;5113174;28;20092;-69
2022/06/27 05:15:55;;;;;;;1.15;0.40;;;21.20;65.30;;;;;;5113496;28;20043;-71
2022/06/27 05:18:21;;;;;;;1.10;0.40;;;21.20;65.30;;;;;;5113584;28;20043;-71
2022/06/27 05:20:47;;;;;;;1.23;0.50;;;21.20;65.30;;;;;;5113249;28;20046;-69
2022/06/27 05:23:13;;;;;;;1.02;0.40;;;21.20;65.30;;;;;;5113109;28;20035;-71
2022/06/27 05:25:41;;;;;;;0.70;0.40;;;21.20;65.20;;;;;;5114055;28;20486;-70
2022/06/27 05:28:07;;;;;;;0.77;0.47;;;21.20;65.20;;;;;;5113212;28;20040;-70
2022/06/27 05:30:33;;;;;;;0.60;0.40;;;21.20;65.20;;;;;;5112907;28;20103;-71
2022/06/27 05:32:59;;;;;;;0.60;0.30;;;21.20;65.20;;;;;;5112923;28;20547;-70
2022/06/27 05:35:25;;;;;;;0.90;0.50;;;21.20;65.10;;;;;;5112612;28;20042;-69
2022/06/27 05:37:54;;;;;;;0.60;0.40;;;21.30;65.10;;;;;;5111253;28;20478;-71
2022/06/27 05:40:20;;;;;;;1.00;0.60;;;21.30;65.00;;;;;;5112732;28;20107;-71
2022/06/27 05:42:47;;;;;;;0.70;0.50;;;21.30;65.00;;;;;;5111620;28;20039;-71
2022/06/27 05:45:13;;;;;;;1.30;0.70;;;21.30;65.00;;;;;;5111204;28;20532;-73
2022/06/27 05:47:40;;;;;;;0.50;0.22;;;21.30;64.90;;;;;;5112877;28;20031;-73
2022/06/27 05:50:06;;;;;;;0.60;0.30;;;21.30;64.90;;;;;;5112908;28;20109;-72
2022/06/27 05:52:32;;;;;;;0.60;0.30;;;21.40;64.90;;;;;;5111946;28;20127;-71
2022/06/27 05:54:59;;;;;;;0.90;0.30;;;21.40;65.00;;;;;;5102484;28;20085;-75
2022/06/27 05:57:25;;;;;;;1.38;0.30;;;21.40;65.00;;;;;;5111185;28;20120;-72
2022/06/27 05:59:53;;;;;;;3.50;0.50;;;21.50;65.00;;;;;;5109397;28;20074;-69
2022/06/27 06:02:21;;;;;;;0.80;0.30;;;21.40;65.20;;;;;;5109025;28;20043;-72
2022/06/27 06:04:47;;;;;;;1.95;0.73;;;21.50;65.30;;;;;;5101351;28;20439;-70
2022/06/27 06:07:14;;;;;;;4.40;0.40;;;21.50;65.30;;;;;;5106801;28;20083;-71
2022/06/27 06:09:41;;;;;;;1.67;0.30;;;21.40;65.20;;;;;;5109041;28;20471;-71
2022/06/27 06:12:09;;;;;;;2.60;0.40;;;21.40;65.20;;;;;;5098113;28;20114;-71
2022/06/27 06:14:36;;;;;;;2.33;0.30;;;21.50;65.20;;;;;;5104487;28;20036;-71
2022/06/27 06:17:03;;;;;;;0.80;0.20;;;21.50;65.10;;;;;;5106438;28;20047;-71
2022/06/27 06:19:29;;;;;;;1.55;0.30;;;21.50;65.10;;;;;;5105221;28;20067;-71
2022/06/27 06:21:55;;;;;;;3.30;0.50;;;21.50;65.20;;;;;;5100431;28;20051;-71
2022/06/27 06:24:21;;;;;;;3.13;0.35;;;21.40;65.20;;;;;;5105667;28;20043;-71
2022/06/27 06:26:47;;;;;;;1.98;0.77;;;21.50;65.30;;;;;;5104931;28;20070;-72
2022/06/27 06:29:15;;;;;;;2.05;0.30;;;21.50;65.70;;;;;;5103885;28;20036;-73
2022/06/27 06:31:43;;;;;;;3.50;0.43;;;21.50;65.80;;;;;;5100445;28;20582;-71
2022/06/27 06:34:10;;;;;;;1.77;0.30;;;21.60;65.90;;;;;;5091470;28;20043;-70
2022/06/27 06:36:37;;;;;;;3.75;0.77;;;21.60;66.00;;;;;;5091068;28;20089;-74
2022/06/27 06:39:03;;;;;;;6.65;0.40;;;21.60;66.10;;;;;;5099396;27;20054;-70
2022/06/27 06:41:29;;;;;;;5.50;0.57;;;21.60;66.10;;;;;;5088860;27;20092;-73
2022/06/27 06:43:55;;;;;;;6.72;0.43;;;21.70;66.20;;;;;;5079089;28;20601;-71
2022/06/27 06:46:21;;;;;;;3.78;0.40;;;21.70;66.20;;;;;;5088898;28;20035;-70
2022/06/27 06:48:46;;;;;;;2.83;0.75;;;21.70;66.10;;;;;;5090657;28;20043;-69
2022/06/27 06:51:15;;;;;;;3.53;0.50;;;21.70;66.10;;;;;;5085337;28;20032;-70
2022/06/27 06:53:41;;;;;;;4.35;0.63;;;21.70;66.10;;;;;;5085015;28;20096;-70
2022/06/27 06:56:07;;;;;;;1.30;0.60;;;21.70;66.20;;;;;;5083394;28;20032;-74
2022/06/27 06:58:34;;;;;;;2.97;0.45;;;21.70;66.20;;;;;;5098239;27;20062;-73
2022/06/27 07:01:01;;;;;;;3.60;0.50;;;21.70;66.30;;;;;;5084918;28;20483;-74
2022/06/27 07:03:28;;;;;;;2.60;0.47;;;21.70;66.40;;;;;;5084498;28;20055;-71
2022/06/27 07:05:54;;;;;;;7.32;1.02;;;21.80;66.70;;;;;;5089348;28;20039;-69
2022/06/27 07:08:24;;;;;;;6.93;0.70;;;21.80;66.90;;;;;;5087712;28;20135;-72
2022/06/27 07:10:51;;;;;;;2.35;0.63;;;21.80;66.90;;;;;;5086614;28;20354;-69
2022/06/27 07:13:17;;;;;;;6.65;0.70;;;21.80;67.10;;;;;;5092071;28;20040;-73
2022/06/27 07:15:45;;;;;;;1.55;0.50;;;21.80;67.20;;;;;;5092224;28;20527;-72
2022/06/27 07:18:13;;;;;;;3.10;0.40;;;21.80;67.10;;;;;;5090365;28;20047;-70
2022/06/27 07:20:39;;;;;;;5.13;0.70;;;21.80;67.10;;;;;;5086980;28;20044;-70
2022/06/27 07:23:06;;;;;;;5.97;0.50;;;21.90;67.30;;;;;;5087297;28;20110;-69
2022/06/27 07:25:34;;;;;;;3.70;0.43;;;21.90;67.50;;;;;;5086280;28;20121;-71
2022/06/27 07:28:00;;;;;;;3.83;0.40;;;21.90;67.50;;;;;;5087102;28;20525;-69
2022/06/27 07:30:29;;;;;;;4.80;0.60;;;21.90;67.50;;;;;;5083979;28;20127;-68
2022/06/27 07:32:55;;;;;;;6.40;0.60;;;22.00;67.50;;;;;;5086304;28;20036;-69
2022/06/27 07:35:22;;;;;;;2.90;0.88;;;21.90;67.20;;;;;;5086619;28;20738;-69
2022/06/27 07:37:48;;;;;;;3.80;0.60;;;22.00;67.20;;;;;;5093100;28;20043;-70
2022/06/27 07:40:17;;;;;;;7.85;0.57;;;22.00;67.20;;;;;;5087750;28;20059;-69
2022/06/27 07:42:44;;;;;;;1.88;0.40;;;21.90;67.10;;;;;;5093537;28;20382;-69
2022/06/27 07:45:12;;;;;;;3.63;0.47;;;22.00;66.90;;;;;;5089485;28;20117;-68
2022/06/27 07:47:42;;;;;;;4.95;0.60;;;22.00;66.90;;;;;;5099340;28;20052;-69
2022/06/27 07:50:08;;;;;;;4.28;0.30;;;22.00;66.80;;;;;;5092311;28;20043;-69
2022/06/27 07:53:11;;;;;;;3.65;0.68;;;22.10;66.70;;;;;;5088170;28;20047;-68
2022/06/27 07:55:24;;;;;;;3.63;0.40;;;22.00;66.60;;;;;;5091979;28;20054;-69
2022/06/27 07:57:52;;;;;;;1.03;0.30;;;22.10;66.50;;;;;;5087634;28;20047;-69
2022/06/27 08:00:21;;;;;;;4.20;0.57;;;22.10;66.40;;;;;;5091325;27;20052;-69
2022/06/27 08:02:47;;;;;;;4.25;0.45;;;22.10;66.40;;;;;;5092501;28;20028;-68
2022/06/27 08:05:12;;;;;;;4.78;0.40;;;22.20;66.20;;;;;;5096273;28;20047;-68
2022/06/27 08:07:38;;;;;;;1.67;0.55;;;22.20;66.10;;;;;;5106286;27;20074;-69
2022/06/27 08:10:05;;;;;;;5.13;0.50;;;22.30;66.10;;;;;;5094308;27;20048;-70
2022/06/27 08:12:32;;;;;;;4.18;0.45;;;22.30;66.00;;;;;;5090319;27;20043;-69
2022/06/27 08:15:01;;;;;;;4.40;0.50;;;22.30;65.90;;;;;;5093113;28;20044;-68
2022/06/27 08:17:27;;;;;;;3.50;0.52;;;22.30;65.80;;;;;;5093543;28;20071;-69
2022/06/27 08:19:53;;;;;;;2.05;0.40;;;22.30;65.70;;;;;;5094326;27;20643;-71
2022/06/27 08:22:22;;;;;;;2.38;0.50;;;22.40;65.60;;;;;;5089237;27;20054;-70
2022/06/27 08:24:48;;;;;;;4.07;0.63;;;22.40;65.50;;;;;;5098534;28;20113;-72
2022/06/27 08:27:14;;;;;;;2.13;0.40;;;22.40;65.30;;;;;;5109531;27;20040;-70
2022/06/27 08:29:43;;;;;;;4.78;0.40;;;22.40;65.20;;;;;;5096901;28;20394;-72
2022/06/27 08:32:09;;;;;;;3.83;0.35;;;22.40;65.00;;;;;;5092059;28;20107;-71
2022/06/27 08:34:36;;;;;;;3.22;0.68;;;22.40;64.80;;;;;;5097161;28;20036;-70
2022/06/27 08:37:02;;;;;;;2.33;0.38;;;22.40;64.80;;;;;;5093529;28;20052;-71
2022/06/27 08:39:28;;;;;;;4.30;0.40;;;22.40;64.80;;;;;;5094634;28;20048;-71
2022/06/27 08:41:55;;;;;;;3.88;0.70;;;22.40;64.80;;;;;;5094752;28;20083;-72
2022/06/27 08:44:23;;;;;;;2.72;0.38;;;22.50;64.70;;;;;;5092856;27;20047;-71
2022/06/27 08:46:51;;;;;;;2.28;0.40;;;22.50;64.60;;;;;;5097716;27;20047;-71
2022/06/27 08:49:21;;;;;;;4.22;0.50;;;22.50;64.60;;;;;;5087669;27;20123;-71
2022/06/27 08:51:48;;;;;;;7.45;0.65;;;22.50;64.50;;;;;;5077354;28;20040;-71
2022/06/27 08:54:14;;;;;;;4.07;0.30;;;22.50;64.60;;;;;;5092405;27;20574;-74
2022/06/27 08:56:40;;;;;;;3.78;0.35;;;22.70;64.60;;;;;;5091685;28;20043;-74
2022/06/27 08:59:06;;;;;;;6.25;0.60;;;22.80;64.40;;;;;;5090685;28;20081;-74
2022/06/27 09:01:32;;;;;;;3.63;0.30;;;22.80;63.90;;;;;;5092557;28;20044;-74
2022/06/27 09:04:03;;;;;;;1.85;0.60;;;22.80;63.80;;;;;;5088102;28;20108;-74
2022/06/27 09:09:27;;;;;;;2.33;0.47;;;22.90;63.30;;;;;;5098308;27;20415;-72
2022/06/27 09:11:54;;;;;;;2.85;0.40;;;22.90;63.20;;;;;;5078994;28;20043;-72
2022/06/27 09:17:15;;;;;;;3.00;0.30;;;22.90;63.10;;;;;;5095606;27;1162900;-70
2022/06/27 09:19:56;;;;;;;1.85;0.40;;;22.80;63.20;;;;;;5110732;27;20051;-71
2022/06/27 09:22:25;;;;;;;2.13;0.30;;;22.70;63.10;;;;;;5111442;27;20580;-69
2022/06/27 09:25:09;;;;;;;2.60;0.30;;;22.70;63.30;;;;;;5118779;27;20031;-70
2022/06/27 09:27:44;;;;;;;2.58;0.30;;;22.70;63.50;;;;;;5108563;27;20794;-70
2022/06/27 09:32:59;;;;;;;2.13;0.73;;;22.60;63.70;;;;;;5110795;27;1159895;-73
2022/06/27 09:35:36;;;;;;;1.38;0.30;;;22.70;63.90;;;;;;5134251;27;20543;-72
2022/06/27 09:38:07;;;;;;;2.35;0.40;;;22.60;64.10;;;;;;5133211;27;20043;-74
2022/06/27 09:40:34;;;;;;;4.13;0.50;;;22.60;64.20;;;;;;5134174;27;20153;-73
2022/06/27 09:43:00;;;;;;;2.80;0.43;;;22.60;64.20;;;;;;5130954;27;20119;-72
2022/06/27 09:45:29;;;;;;;2.65;0.40;;;22.60;64.30;;;;;;5133060;27;20042;-73
2022/06/27 09:48:00;;;;;;;3.85;1.00;;;22.60;64.40;;;;;;5133082;27;20518;-75
2022/06/27 09:50:32;;;;;;;2.97;0.38;;;22.60;64.50;;;;;;5156928;27;20130;-76
2022/06/27 09:52:59;;;;;;;3.08;0.50;;;22.60;64.50;;;;;;5154216;27;20038;-72
2022/06/27 09:55:26;;;;;;;1.63;0.70;;;22.50;64.60;;;;;;5134586;27;20046;-72
2022/06/27 09:57:53;;;;;;;2.72;0.47;;;22.60;64.70;;;;;;5143089;27;20042;-73
2022/06/27 10:00:20;;;;;;;3.97;0.52;;;22.60;64.60;;;;;;5135382;27;20051;-71
2022/06/27 10:02:47;;;;;;;2.53;0.40;;;22.60;64.70;;;;;;5153256;27;20535;-69
2022/06/27 10:05:16;;;;;;;1.65;0.30;;;22.60;64.60;;;;;;5140791;27;20038;-70
2022/06/27 10:07:58;;;;;;;1.38;0.40;;;22.60;64.60;;;;;;5134306;27;20693;-70
2022/06/27 10:10:24;;;;;;;3.13;0.73;;;22.60;64.50;;;;;;5135336;27;20789;-69
2022/06/27 10:12:59;;;;;;;5.25;0.45;;;22.60;64.60;;;;;;5133939;27;20398;-70
2022/06/27 10:15:27;;;;;;;2.35;0.52;;;22.60;64.60;;;;;;5134698;27;20611;-69
2022/06/27 10:17:54;;;;;;;2.03;0.57;;;22.60;64.80;;;;;;5137732;27;20525;-71
2022/06/27 10:26:01;;;;;;;8.50;0.80;;;22.60;65.00;;;;;;5110380;27;20056;-72
2022/06/27 10:28:27;;;;;;;4.55;0.85;;;22.60;65.50;;;;;;5109289;27;20127;-67
2022/06/27 10:31:00;;;;;;;2.80;0.40;;;22.70;65.60;;;;;;5108186;27;20073;-67
2022/06/27 10:36:14;;;;;;;3.08;0.77;;;22.70;65.80;;;;;;5084378;27;20410;-68
2022/06/27 10:44:25;;;;;;;5.45;0.60;;;22.70;65.60;;;;;;5097237;27;20446;-69
2022/06/27 10:46:50;;;;;;;3.22;0.50;;;22.80;65.40;;;;;;5098079;28;20070;-69
2022/06/27 10:49:20;;;;;;;5.68;1.02;;;22.70;65.30;;;;;;5130953;27;20475;-68
2022/06/27 10:51:46;;;;;;;4.18;1.33;;;22.70;65.50;;;;;;5097305;28;20050;-68
2022/06/27 10:54:12;;;;;;;5.22;0.75;;;22.70;65.90;;;;;;5089003;28;20074;-68
2022/06/27 11:04:45;;;;;;;3.50;0.88;;;22.70;66.20;;;;;;5070622;27;20857;-72
2022/06/27 11:07:11;;;;;;;5.80;0.63;;;22.80;66.80;;;;;;5051321;28;20412;-70
2022/06/27 11:12:20;;;;;;;3.70;0.60;;;22.90;67.10;;;;;;5145086;27;19955;-69
2022/06/27 11:17:45;;;;;;;7.07;0.80;;;22.90;67.00;;;;;;5064271;28;20480;-70
2022/06/27 11:20:14;;;;;;;6.97;1.13;;;22.90;67.30;;;;;;5061596;28;20063;-69
2022/06/27 11:22:46;;;;;;;8.30;1.05;;;22.90;67.10;;;;;;5076666;28;20047;-69
2022/06/27 11:25:12;;;;;;;5.20;0.98;;;23.00;67.00;;;;;;5076551;28;20190;-69
2022/06/27 11:33:17;;;;;;;4.97;0.65;;;23.00;66.30;;;;;;5070985;28;20567;-69
2022/06/27 11:35:45;;;;;;;4.97;0.85;;;23.10;66.10;;;;;;5068564;28;20051;-73
2022/06/27 11:38:11;;;;;;;8.18;0.82;;;23.10;66.20;;;;;;5072847;28;20075;-71
2022/06/27 11:40:37;;;;;;;6.00;0.63;;;23.10;66.20;;;;;;5071258;28;20153;-73
2022/06/27 11:43:03;;;;;;;2.25;1.05;;;23.00;66.10;;;;;;5065861;28;20132;-73
2022/06/27 11:45:40;;;;;;;5.60;0.75;;;23.00;66.10;;;;;;5071738;28;20043;-73
2022/06/27 11:48:12;;;;;;;3.80;0.60;;;23.00;66.00;;;;;;5072103;28;20043;-72
2022/06/27 11:50:37;;;;;;;3.63;0.82;;;23.10;66.20;;;;;;5078769;28;20041;-71
2022/06/27 11:53:03;;;;;;;9.43;0.70;;;23.10;66.20;;;;;;5069137;28;20369;-74
2022/06/27 11:55:30;;;;;;;2.80;0.63;;;23.00;66.20;;;;;;5066084;28;20041;-70
2022/06/27 11:57:57;;;;;;;4.28;0.85;;;23.10;66.30;;;;;;5064419;28;20067;-70
2022/06/27 12:00:27;;;;;;;6.43;0.88;;;23.10;66.30;;;;;;5067548;28;20115;-71
2022/06/27 12:03:02;;;;;;;5.85;0.65;;;23.10;66.30;;;;;;5064656;28;20036;-72
2022/06/27 12:05:28;;;;;;;5.07;0.95;;;23.10;66.30;;;;;;5069066;28;20037;-71
2022/06/27 12:11:27;;;;;;;5.50;0.70;;;23.20;66.10;;;;;;5056628;27;20216;-70
2022/06/27 12:13:38;;;;;;;4.57;0.75;;;23.20;65.60;;;;;;5047058;28;20045;-70
2022/06/27 12:16:06;;;;;;;8.27;0.52;;;23.20;65.60;;;;;;5036818;28;20409;-69
2022/06/27 12:18:34;;;;;;;14.05;1.45;;;23.20;65.60;;;;;;5038653;28;20029;-69
2022/06/27 12:20:59;;;;;;;7.70;0.80;;;23.30;65.70;;;;;;5035901;28;20045;-71
2022/06/27 12:23:25;;;;;;;7.82;0.90;;;23.30;65.60;;;;;;5050913;28;20505;-72
2022/06/27 12:25:51;;;;;;;5.93;0.90;;;23.40;65.80;;;;;;5046723;28;20045;-68
2022/06/27 12:28:17;;;;;;;8.57;1.10;;;23.40;65.80;;;;;;5044055;28;20044;-70
2022/06/27 12:30:42;;;;;;;7.47;1.38;;;23.40;65.90;;;;;;5031838;28;20033;-74
2022/06/27 12:33:08;;;;;;;5.18;1.15;;;23.50;66.20;;;;;;5046575;28;20558;-70
2022/06/27 12:35:35;;;;;;;11.45;1.75;;;23.50;66.10;;;;;;5053020;28;20919;-70
2022/06/27 12:38:02;;;;;;;7.80;0.55;;;23.50;66.00;;;;;;5031069;28;20163;-69
2022/06/27 12:40:28;;;;;;;3.70;0.70;;;23.50;66.10;;;;;;5026768;28;20048;-70
2022/06/27 12:42:54;;;;;;;8.38;1.00;;;23.50;66.10;;;;;;5029351;28;20137;-70
2022/06/27 12:45:25;;;;;;;6.05;1.05;;;23.60;66.00;;;;;;5026761;28;20071;-71
2022/06/27 12:47:51;;;;;;;3.95;0.80;;;23.60;66.10;;;;;;5028934;28;20156;-70
2022/06/27 12:50:17;;;;;;;3.05;0.70;;;23.60;66.10;;;;;;5029657;28;20042;-71
2022/06/27 12:52:43;;;;;;;6.13;1.13;;;23.60;65.90;;;;;;5029360;28;20050;-72
2022/06/27 12:55:09;;;;;;;7.93;1.70;;;23.60;65.90;;;;;;5035923;28;20048;-72
2022/06/27 12:57:35;;;;;;;4.50;0.90;;;23.60;65.90;;;;;;5032022;28;20046;-71
2022/06/27 13:00:03;;;;;;;4.25;1.27;;;23.50;65.90;;;;;;5029165;28;20048;-71
2022/06/27 13:02:28;;;;;;;2.75;1.20;;;23.50;65.90;;;;;;5040391;28;20045;-71
2022/06/27 13:04:54;;;;;;;4.80;1.17;;;23.50;66.00;;;;;;5031178;28;20041;-72
2022/06/27 13:07:20;;;;;;;5.35;1.63;;;23.50;66.10;;;;;;5027853;28;20045;-70
2022/06/27 13:09:46;;;;;;;6.40;0.70;;;23.50;66.30;;;;;;5035638;28;20066;-71
2022/06/27 13:12:14;;;;;;;4.13;0.90;;;23.50;66.10;;;;;;5049421;28;20050;-71
2022/06/27 13:14:40;;;;;;;4.32;0.75;;;23.50;66.20;;;;;;5040259;28;20683;-71
2022/06/27 13:17:06;;;;;;;8.10;0.90;;;23.40;66.00;;;;;;5031464;28;20675;-71
2022/06/27 13:19:32;;;;;;;2.40;0.63;;;23.40;66.10;;;;;;5034307;28;20033;-71
2022/06/27 13:21:58;;;;;;;2.45;0.80;;;23.40;65.90;;;;;;5013411;28;20045;-71
2022/06/27 13:24:24;;;;;;;1.80;0.95;;;23.40;65.80;;;;;;5027010;28;20506;-70
2022/06/27 13:26:52;;;;;;;6.30;1.52;;;23.40;65.80;;;;;;5015487;28;20048;-72
2022/06/27 13:29:18;;;;;;;5.07;0.65;;;23.40;65.70;;;;;;5021922;28;20041;-72
2022/06/27 13:31:43;;;;;;;14.57;0.85;;;23.40;65.90;;;;;;5024537;28;20131;-71
2022/06/27 13:34:10;;;;;;;4.15;0.98;;;23.40;66.10;;;;;;5023244;28;20041;-70
2022/06/27 13:36:35;;;;;;;3.42;1.02;;;23.40;66.30;;;;;;5025574;28;20077;-67
2022/06/27 13:39:02;;;;;;;7.85;1.17;;;23.40;66.20;;;;;;5034137;28;20084;-67
2022/06/27 13:41:28;;;;;;;1.75;0.55;;;23.40;66.10;;;;;;5027776;28;20452;-67